createdAt,value
2018-02-18T00:00:30.378Z,-0.90
2018-02-18T00:01:33.673Z,-0.80
2018-02-18T00:02:36.230Z,-0.90
2018-02-18T00:03:39.542Z,-0.80
2018-02-18T00:04:42.071Z,-0.80
2018-02-18T00:05:45.371Z,-0.80
2018-02-18T00:06:47.934Z,-0.90
2018-02-18T00:07:50.457Z,-0.90
2018-02-18T00:08:52.989Z,-0.90
2018-02-18T00:09:55.513Z,-0.80
2018-02-18T00:10:58.843Z,-0.80
2018-02-18T00:12:01.384Z,-0.80
2018-02-18T00:13:03.911Z,-0.90
2018-02-18T00:14:10.070Z,-0.80
2018-02-18T00:15:12.589Z,-0.80
2018-02-18T00:16:15.145Z,-0.80
2018-02-18T00:17:17.705Z,-0.90
2018-02-18T00:18:20.240Z,-0.90
2018-02-18T00:19:22.762Z,-0.90
2018-02-18T00:20:25.287Z,-0.90
2018-02-18T00:21:28.611Z,-1.00
2018-02-18T00:22:31.156Z,-1.00
2018-02-18T00:23:33.682Z,-1.00
2018-02-18T00:24:36.258Z,-1.10
2018-02-18T00:25:38.783Z,-1.10
2018-02-18T00:26:41.313Z,-1.10
2018-02-18T00:27:43.838Z,-1.20
2018-02-18T00:28:46.366Z,-1.20
2018-02-18T00:29:48.922Z,-1.20
2018-02-18T00:30:51.459Z,-1.20
2018-02-18T00:31:54.755Z,-1.20
2018-02-18T00:32:58.055Z,-1.20
2018-02-18T00:34:00.572Z,-1.20
2018-02-18T00:35:03.130Z,-1.20
2018-02-18T00:36:05.654Z,-1.20
2018-02-18T00:37:08.186Z,-1.20
2018-02-18T00:38:10.706Z,-1.20
2018-02-18T00:39:13.270Z,-1.20
2018-02-18T00:40:15.838Z,-1.20
2018-02-18T00:41:18.398Z,-1.20
2018-02-18T00:42:20.923Z,-1.20
2018-02-18T00:43:24.223Z,-1.10
2018-02-18T00:44:27.563Z,-1.10
2018-02-18T00:45:30.093Z,-1.10
2018-02-18T00:46:32.627Z,-1.10
2018-02-18T00:47:35.918Z,-1.20
2018-02-18T00:48:39.251Z,-1.20
2018-02-18T00:49:41.774Z,-1.20
2018-02-18T00:50:44.332Z,-1.20
2018-02-18T00:51:47.648Z,-1.20
2018-02-18T00:52:50.165Z,-1.30
2018-02-18T00:53:52.693Z,-1.30
2018-02-18T00:54:55.220Z,-1.30
2018-02-18T00:55:58.541Z,-1.30
2018-02-18T00:57:01.078Z,-1.40
2018-02-18T00:58:03.607Z,-1.40
2018-02-18T00:59:06.141Z,-1.40
2018-02-18T01:00:08.701Z,-1.40
2018-02-18T01:01:11.237Z,-1.40
2018-02-18T01:02:14.574Z,-1.30
2018-02-18T01:03:17.102Z,-1.30
2018-02-18T01:04:19.642Z,-1.30
2018-02-18T01:05:22.958Z,-1.30
2018-02-18T01:06:25.481Z,-1.30
2018-02-18T01:07:28.033Z,-1.30
2018-02-18T01:08:30.557Z,-1.40
2018-02-18T01:09:33.081Z,-1.40
2018-02-18T01:10:35.604Z,-1.50
2018-02-18T01:11:38.168Z,-1.50
2018-02-18T01:12:40.709Z,-1.40
2018-02-18T01:13:43.248Z,-1.40
2018-02-18T01:14:46.533Z,-1.50
2018-02-18T01:15:49.820Z,-1.50
2018-02-18T01:16:53.141Z,-1.40
2018-02-18T01:17:55.677Z,-1.50
2018-02-18T01:18:58.968Z,-1.40
2018-02-18T01:20:01.494Z,-1.50
2018-02-18T01:21:04.022Z,-1.40
2018-02-18T01:22:06.591Z,-1.40
2018-02-18T01:23:09.178Z,-1.50
2018-02-18T01:24:11.711Z,-1.50
2018-02-18T01:25:14.234Z,-1.50
2018-02-18T01:26:16.766Z,-1.50
2018-02-18T01:27:19.298Z,-1.50
2018-02-18T01:28:21.868Z,-1.50
2018-02-18T01:29:24.415Z,-1.50
2018-02-18T01:30:27.725Z,-1.60
2018-02-18T01:31:30.258Z,-1.50
2018-02-18T01:32:32.783Z,-1.60
2018-02-18T01:33:35.341Z,-1.60
2018-02-18T01:34:37.873Z,-1.60
2018-02-18T01:35:41.168Z,-1.60
2018-02-18T01:36:43.689Z,-1.60
2018-02-18T01:37:46.218Z,-1.60
2018-02-18T01:38:48.786Z,-1.60
2018-02-18T01:39:51.308Z,-1.60
2018-02-18T01:40:53.833Z,-1.60
2018-02-18T01:41:56.365Z,-1.70
2018-02-18T01:42:58.930Z,-1.70
2018-02-18T01:44:01.479Z,-1.70
2018-02-18T01:45:04.773Z,-1.70
2018-02-18T01:46:07.301Z,-1.70
2018-02-18T01:47:09.849Z,-1.70
2018-02-18T01:48:12.422Z,-1.70
2018-02-18T01:49:14.989Z,-1.70
2018-02-18T01:50:29.450Z,-1.70
2018-02-18T01:51:31.982Z,-1.70
2018-02-18T01:52:34.510Z,-1.70
2018-02-18T01:53:37.851Z,-1.70
2018-02-18T01:54:40.378Z,-1.70
2018-02-18T01:55:42.900Z,-1.70
2018-02-18T01:56:45.418Z,-1.70
2018-02-18T01:57:47.937Z,-1.70
2018-02-18T01:58:50.501Z,-1.70
2018-02-18T01:59:53.065Z,-1.70
2018-02-18T02:00:55.614Z,-1.70
2018-02-18T02:01:58.136Z,-1.70
2018-02-18T02:03:01.430Z,-1.80
2018-02-18T02:04:03.958Z,-1.80
2018-02-18T02:05:07.304Z,-1.80
2018-02-18T02:06:09.831Z,-1.80
2018-02-18T02:07:13.132Z,-1.90
2018-02-18T02:08:15.654Z,-1.90
2018-02-18T02:09:18.179Z,-1.90
2018-02-18T02:10:20.750Z,-1.90
2018-02-18T02:11:23.274Z,-1.80
2018-02-18T02:12:26.565Z,-1.90
2018-02-18T02:13:29.854Z,-1.90
2018-02-18T02:14:32.377Z,-1.90
2018-02-18T02:15:34.945Z,-1.90
2018-02-18T02:16:37.467Z,-2.00
2018-02-18T02:17:39.994Z,-2.00
2018-02-18T02:18:42.508Z,-2.00
2018-02-18T02:19:45.036Z,-2.00
2018-02-18T02:20:48.349Z,-2.00
2018-02-18T02:21:50.870Z,-2.00
2018-02-18T02:22:53.398Z,-2.00
2018-02-18T02:23:55.922Z,-2.00
2018-02-18T02:24:59.205Z,-2.00
2018-02-18T02:26:02.526Z,-2.00
2018-02-18T02:27:05.050Z,-2.00
2018-02-18T02:29:17.440Z,-2.10
2018-02-18T02:30:19.966Z,-2.10
2018-02-18T02:31:23.364Z,-2.10
2018-02-18T02:32:25.897Z,-2.10
2018-02-18T02:33:28.458Z,-2.00
2018-02-18T02:34:31.024Z,-2.00
2018-02-18T02:35:33.555Z,-2.10
2018-02-18T02:36:36.874Z,-2.10
2018-02-18T02:37:39.402Z,-2.10
2018-02-18T02:38:41.955Z,-2.20
2018-02-18T02:39:44.529Z,-2.10
2018-02-18T02:40:47.055Z,-2.20
2018-02-18T02:41:49.576Z,-2.10
2018-02-18T02:42:52.878Z,-2.10
2018-02-18T02:43:56.166Z,-2.10
2018-02-18T02:44:58.721Z,-2.10
2018-02-18T02:46:02.015Z,-2.10
2018-02-18T02:47:04.546Z,-2.10
2018-02-18T02:48:07.066Z,-2.10
2018-02-18T02:49:09.624Z,-2.10
2018-02-18T02:50:12.199Z,-2.00
2018-02-18T02:51:14.736Z,-2.00
2018-02-18T02:52:18.101Z,-2.00
2018-02-18T02:53:20.590Z,-2.00
2018-02-18T02:54:23.873Z,-2.00
2018-02-18T02:56:36.194Z,-2.00
2018-02-18T02:57:38.711Z,-2.00
2018-02-18T02:58:41.250Z,-2.00
2018-02-18T02:59:43.815Z,-2.00
2018-02-18T03:00:46.371Z,-2.00
2018-02-18T03:01:48.928Z,-2.10
2018-02-18T03:02:51.467Z,-2.10
2018-02-18T03:03:54.811Z,-2.10
2018-02-18T03:04:57.333Z,-2.10
2018-02-18T03:05:59.861Z,-2.10
2018-02-18T03:07:02.387Z,-2.10
2018-02-18T03:08:04.925Z,-2.10
2018-02-18T03:09:08.249Z,-2.10
2018-02-18T03:10:10.770Z,-2.20
2018-02-18T03:11:14.048Z,-2.20
2018-02-18T03:12:17.378Z,-2.10
2018-02-18T03:13:19.913Z,-2.20
2018-02-18T03:14:22.436Z,-2.20
2018-02-18T03:15:25.112Z,-2.20
2018-02-18T03:16:27.655Z,-2.20
2018-02-18T03:17:30.378Z,-2.20
2018-02-18T03:18:33.702Z,-2.20
2018-02-18T03:19:36.217Z,-2.30
2018-02-18T03:20:39.517Z,-2.20
2018-02-18T03:21:42.810Z,-2.30
2018-02-18T03:22:45.333Z,-2.30
2018-02-18T03:23:47.905Z,-2.20
2018-02-18T03:24:50.432Z,-2.20
2018-02-18T03:25:52.954Z,-2.20
2018-02-18T03:26:56.237Z,-2.20
2018-02-18T03:27:59.526Z,-2.20
2018-02-18T03:29:02.861Z,-2.10
2018-02-18T03:30:05.390Z,-2.10
2018-02-18T03:31:07.915Z,-2.10
2018-02-18T03:32:10.441Z,-2.10
2018-02-18T03:33:12.968Z,-2.20
2018-02-18T03:34:16.288Z,-2.20
2018-02-18T03:35:18.861Z,-2.20
2018-02-18T03:36:22.125Z,-2.30
2018-02-18T03:37:24.649Z,-2.30
2018-02-18T03:38:27.173Z,-2.30
2018-02-18T03:39:29.721Z,-2.30
2018-02-18T03:40:32.286Z,-2.30
2018-02-18T03:41:34.818Z,-2.40
2018-02-18T03:42:37.341Z,-2.40
2018-02-18T03:43:40.043Z,-2.40
2018-02-18T03:44:42.588Z,-2.40
2018-02-18T03:45:45.142Z,-2.50
2018-02-18T03:46:47.653Z,-2.50
2018-02-18T03:47:50.175Z,-2.50
2018-02-18T03:48:52.698Z,-2.50
2018-02-18T03:49:56.006Z,-2.40
2018-02-18T03:50:58.565Z,-2.40
2018-02-18T03:52:01.090Z,-2.40
2018-02-18T03:53:03.621Z,-2.30
2018-02-18T03:54:06.138Z,-2.30
2018-02-18T03:55:08.653Z,-2.30
2018-02-18T03:56:12.088Z,-2.30
2018-02-18T03:57:14.658Z,-2.30
2018-02-18T03:58:17.185Z,-2.40
2018-02-18T03:59:19.717Z,-2.40
2018-02-18T04:00:22.241Z,-2.50
2018-02-18T04:01:24.769Z,-2.60
2018-02-18T04:02:27.325Z,-2.60
2018-02-18T04:03:29.841Z,-2.60
2018-02-18T04:04:32.361Z,-2.50
2018-02-18T04:05:34.886Z,-2.50
2018-02-18T04:06:37.411Z,-2.50
2018-02-18T04:07:39.975Z,-2.60
2018-02-18T04:08:42.495Z,-2.60
2018-02-18T04:09:45.781Z,-2.60
2018-02-18T04:10:49.110Z,-2.60
2018-02-18T04:11:51.630Z,-2.60
2018-02-18T04:12:54.943Z,-2.60
2018-02-18T04:13:57.462Z,-2.60
2018-02-18T04:15:00.011Z,-2.60
2018-02-18T04:16:02.527Z,-2.70
2018-02-18T04:17:05.054Z,-2.70
2018-02-18T04:18:07.578Z,-2.80
2018-02-18T04:19:10.093Z,-2.80
2018-02-18T04:20:12.651Z,-2.80
2018-02-18T04:21:15.185Z,-2.70
2018-02-18T04:22:17.716Z,-2.80
2018-02-18T04:23:21.041Z,-2.80
2018-02-18T04:24:23.580Z,-2.90
2018-02-18T04:25:26.106Z,-2.80
2018-02-18T04:26:28.631Z,-2.80
2018-02-18T04:27:31.190Z,-2.80
2018-02-18T04:28:33.717Z,-2.80
2018-02-18T04:29:37.033Z,-2.80
2018-02-18T04:30:39.557Z,-2.80
2018-02-18T04:31:42.084Z,-2.80
2018-02-18T04:32:44.637Z,-2.80
2018-02-18T04:33:47.153Z,-2.80
2018-02-18T04:34:49.684Z,-2.80
2018-02-18T04:35:52.210Z,-2.70
2018-02-18T04:36:55.541Z,-2.60
2018-02-18T04:37:58.062Z,-2.60
2018-02-18T04:39:01.389Z,-2.60
2018-02-18T04:40:03.905Z,-2.60
2018-02-18T04:41:07.201Z,-2.70
2018-02-18T04:42:09.726Z,-2.70
2018-02-18T04:43:12.265Z,-2.60
2018-02-18T04:44:14.817Z,-2.60
2018-02-18T04:45:17.340Z,-2.70
2018-02-18T04:46:20.628Z,-2.80
2018-02-18T04:47:23.928Z,-2.80
2018-02-18T04:48:26.466Z,-2.80
2018-02-18T04:49:29.041Z,-2.70
2018-02-18T04:50:31.570Z,-2.80
2018-02-18T04:51:34.097Z,-2.80
2018-02-18T04:52:36.629Z,-2.80
2018-02-18T04:53:39.154Z,-2.70
2018-02-18T04:54:41.716Z,-2.70
2018-02-18T04:55:44.271Z,-2.80
2018-02-18T04:56:46.794Z,-2.80
2018-02-18T04:57:49.326Z,-2.80
2018-02-18T04:58:51.888Z,-2.80
2018-02-18T04:59:54.410Z,-2.80
2018-02-18T05:00:57.704Z,-2.80
2018-02-18T05:02:00.993Z,-2.80
2018-02-18T05:03:03.522Z,-2.90
2018-02-18T05:04:06.099Z,-2.90
2018-02-18T05:05:08.619Z,-2.90
2018-02-18T05:06:11.306Z,-2.80
2018-02-18T05:07:13.841Z,-2.80
2018-02-18T05:08:16.369Z,-2.80
2018-02-18T05:09:18.931Z,-2.80
2018-02-18T05:10:21.502Z,-2.80
2018-02-18T05:11:24.030Z,-2.80
2018-02-18T05:12:26.557Z,-2.90
2018-02-18T05:13:29.836Z,-3.00
2018-02-18T05:14:33.131Z,-3.00
2018-02-18T05:15:35.684Z,-3.00
2018-02-18T05:16:38.977Z,-3.10
2018-02-18T05:17:41.493Z,-3.10
2018-02-18T05:18:44.014Z,-3.00
2018-02-18T05:19:46.570Z,-3.10
2018-02-18T05:20:49.868Z,-3.20
2018-02-18T05:21:52.431Z,-3.20
2018-02-18T05:22:54.955Z,-3.10
2018-02-18T05:23:57.525Z,-3.00
2018-02-18T05:25:00.042Z,-3.00
2018-02-18T05:26:02.569Z,-3.10
2018-02-18T05:27:05.849Z,-3.10
2018-02-18T05:28:08.371Z,-3.10
2018-02-18T05:29:10.936Z,-3.10
2018-02-18T05:30:13.467Z,-3.20
2018-02-18T05:31:16.760Z,-3.30
2018-02-18T05:32:19.286Z,-3.30
2018-02-18T05:33:21.814Z,-3.30
2018-02-18T05:34:24.372Z,-3.20
2018-02-18T05:35:26.919Z,-3.20
2018-02-18T05:36:29.486Z,-3.20
2018-02-18T05:37:32.018Z,-3.30
2018-02-18T05:38:34.574Z,-3.20
2018-02-18T05:39:37.202Z,-3.20
2018-02-18T05:40:39.773Z,-3.20
2018-02-18T05:41:42.298Z,-3.10
2018-02-18T05:42:45.590Z,-3.00
2018-02-18T05:43:48.909Z,-3.00
2018-02-18T05:44:51.472Z,-3.00
2018-02-18T05:45:54.003Z,-2.90
2018-02-18T05:46:57.303Z,-2.80
2018-02-18T05:47:59.842Z,-2.80
2018-02-18T05:49:02.364Z,-2.80
2018-02-18T05:50:06.533Z,-2.70
2018-02-18T05:51:09.818Z,-2.70
2018-02-18T05:52:13.114Z,-2.70
2018-02-18T05:53:15.638Z,-2.70
2018-02-18T05:54:18.152Z,-2.70
2018-02-18T05:55:20.713Z,-2.70
2018-02-18T05:56:23.248Z,-2.70
2018-02-18T05:57:26.586Z,-2.80
2018-02-18T05:58:29.139Z,-2.80
2018-02-18T05:59:31.662Z,-2.80
2018-02-18T06:00:34.201Z,-2.80
2018-02-18T06:01:36.735Z,-2.80
2018-02-18T06:02:39.301Z,-2.80
2018-02-18T06:03:41.827Z,-2.80
2018-02-18T06:04:44.354Z,-2.80
2018-02-18T06:05:47.072Z,-2.90
2018-02-18T06:06:50.353Z,-2.90
2018-02-18T06:07:53.684Z,-2.90
2018-02-18T06:08:56.205Z,-2.90
2018-02-18T06:09:59.497Z,-2.90
2018-02-18T06:11:02.830Z,-2.90
2018-02-18T06:12:05.350Z,-2.90
2018-02-18T06:13:08.642Z,-3.00
2018-02-18T06:14:11.199Z,-3.00
2018-02-18T06:15:14.495Z,-2.90
2018-02-18T06:16:17.054Z,-3.00
2018-02-18T06:17:20.382Z,-2.80
2018-02-18T06:18:22.915Z,-2.90
2018-02-18T06:19:25.443Z,-2.80
2018-02-18T06:20:27.970Z,-2.80
2018-02-18T06:21:31.278Z,-2.80
2018-02-18T06:22:33.862Z,-2.90
2018-02-18T06:23:36.469Z,-2.80
2018-02-18T06:24:38.997Z,-2.80
2018-02-18T06:25:41.516Z,-2.80
2018-02-18T06:26:44.049Z,-2.90
2018-02-18T06:27:47.370Z,-2.80
2018-02-18T06:28:49.888Z,-2.90
2018-02-18T06:29:52.414Z,-2.90
2018-02-18T06:30:54.972Z,-2.80
2018-02-18T06:31:57.493Z,-2.80
2018-02-18T06:33:00.789Z,-2.80
2018-02-18T06:34:03.321Z,-2.80
2018-02-18T06:35:05.844Z,-2.80
2018-02-18T06:36:08.408Z,-2.80
2018-02-18T06:37:10.961Z,-2.80
2018-02-18T06:38:13.544Z,-2.70
2018-02-18T06:39:16.831Z,-2.80
2018-02-18T06:40:19.355Z,-2.80
2018-02-18T06:41:22.646Z,-2.80
2018-02-18T06:42:25.933Z,-2.80
2018-02-18T06:43:29.259Z,-2.80
2018-02-18T06:44:31.780Z,-2.80
2018-02-18T06:45:35.077Z,-2.80
2018-02-18T06:46:37.609Z,-2.80
2018-02-18T06:47:40.298Z,-2.70
2018-02-18T06:48:43.627Z,-2.80
2018-02-18T06:49:46.153Z,-2.80
2018-02-18T06:50:49.465Z,-2.80
2018-02-18T06:51:52.028Z,-2.80
2018-02-18T06:52:54.544Z,-2.80
2018-02-18T06:53:57.105Z,-2.70
2018-02-18T06:54:59.624Z,-2.70
2018-02-18T06:56:02.149Z,-2.80
2018-02-18T06:57:04.679Z,-2.80
2018-02-18T06:58:07.201Z,-2.80
2018-02-18T06:59:10.532Z,-2.80
2018-02-18T07:00:13.061Z,-2.80
2018-02-18T07:01:15.595Z,-2.80
2018-02-18T07:02:18.125Z,-2.80
2018-02-18T07:03:20.654Z,-2.70
2018-02-18T07:04:23.214Z,-2.60
2018-02-18T07:05:26.502Z,-2.60
2018-02-18T07:06:29.808Z,-2.60
2018-02-18T07:07:32.334Z,-2.60
2018-02-18T07:08:35.681Z,-2.60
2018-02-18T07:09:38.197Z,-2.60
2018-02-18T07:10:41.526Z,-2.40
2018-02-18T07:11:44.054Z,-2.40
2018-02-18T07:12:47.346Z,-2.40
2018-02-18T07:13:49.926Z,-2.40
2018-02-18T07:14:52.455Z,-2.40
2018-02-18T07:15:55.751Z,-2.60
2018-02-18T07:16:59.057Z,-2.60
2018-02-18T07:18:01.583Z,-2.60
2018-02-18T07:19:04.158Z,-2.60
2018-02-18T07:20:07.453Z,-2.60
2018-02-18T07:21:10.737Z,-2.60
2018-02-18T07:22:14.031Z,-2.60
2018-02-18T07:23:16.561Z,-2.70
2018-02-18T07:24:19.123Z,-2.60
2018-02-18T07:25:21.649Z,-2.60
2018-02-18T07:26:24.173Z,-2.60
2018-02-18T07:27:27.465Z,-2.60
2018-02-18T07:28:30.769Z,-2.60
2018-02-18T07:29:33.378Z,-2.60
2018-02-18T07:30:35.907Z,-2.50
2018-02-18T07:31:38.451Z,-2.50
2018-02-18T07:32:41.750Z,-2.40
2018-02-18T07:33:44.281Z,-2.40
2018-02-18T07:34:46.860Z,-2.40
2018-02-18T07:35:50.157Z,-2.40
2018-02-18T07:36:53.454Z,-2.40
2018-02-18T07:37:55.982Z,-2.40
2018-02-18T07:38:58.514Z,-2.30
2018-02-18T07:40:01.074Z,-2.30
2018-02-18T07:41:03.602Z,-2.40
2018-02-18T07:42:06.894Z,-2.30
2018-02-18T07:43:09.451Z,-2.30
2018-02-18T07:44:12.740Z,-2.40
2018-02-18T07:45:16.079Z,-2.30
2018-02-18T07:46:18.608Z,-2.30
2018-02-18T07:47:21.144Z,-2.30
2018-02-18T07:48:24.436Z,-2.30
2018-02-18T07:49:27.725Z,-2.20
2018-02-18T07:50:30.281Z,-2.20
2018-02-18T07:51:33.651Z,-2.20
2018-02-18T07:52:36.216Z,-2.20
2018-02-18T07:53:38.754Z,-2.10
2018-02-18T07:54:41.287Z,-2.00
2018-02-18T07:55:43.813Z,-2.00
2018-02-18T07:56:46.386Z,-2.00
2018-02-18T07:57:48.910Z,-2.00
2018-02-18T07:58:51.449Z,-1.90
2018-02-18T07:59:53.972Z,-1.80
2018-02-18T08:00:56.500Z,-1.80
2018-02-18T08:01:59.068Z,-1.70
2018-02-18T08:03:01.628Z,-1.80
2018-02-18T08:04:04.177Z,-1.80
2018-02-18T08:05:06.702Z,-1.70
2018-02-18T08:06:09.238Z,-1.70
2018-02-18T08:07:11.819Z,-1.80
2018-02-18T08:08:14.350Z,-1.80
2018-02-18T08:09:16.870Z,-1.70
2018-02-18T08:10:19.398Z,-1.70
2018-02-18T08:11:21.958Z,-1.70
2018-02-18T08:12:24.491Z,-1.60
2018-02-18T08:13:27.809Z,-1.50
2018-02-18T08:14:30.338Z,-1.60
2018-02-18T08:15:33.647Z,-1.60
2018-02-18T08:16:36.206Z,-1.60
2018-02-18T08:17:38.735Z,-1.50
2018-02-18T08:18:41.279Z,-1.40
2018-02-18T08:19:43.805Z,-1.40
2018-02-18T08:20:46.476Z,-1.30
2018-02-18T08:21:49.036Z,-1.30
2018-02-18T08:22:51.565Z,-1.30
2018-02-18T08:23:54.089Z,-1.20
2018-02-18T08:24:56.628Z,-1.20
2018-02-18T08:25:59.921Z,-1.20
2018-02-18T08:27:02.487Z,-1.10
2018-02-18T08:28:05.013Z,-1.10
2018-02-18T08:29:07.540Z,-1.10
2018-02-18T08:30:10.124Z,-1.10
2018-02-18T08:31:13.418Z,-1.00
2018-02-18T08:32:15.942Z,-1.00
2018-02-18T08:33:18.524Z,-0.90
2018-02-18T08:34:21.053Z,-0.90
2018-02-18T08:35:24.348Z,-0.80
2018-02-18T08:36:27.630Z,-0.80
2018-02-18T08:37:30.152Z,-0.80
2018-02-18T08:38:32.713Z,-0.80
2018-02-18T08:39:35.237Z,-0.80
2018-02-18T08:40:37.764Z,-0.80
2018-02-18T08:41:40.293Z,-0.80
2018-02-18T08:42:42.821Z,-0.80
2018-02-18T08:43:46.149Z,-0.70
2018-02-18T08:44:48.690Z,-0.70
2018-02-18T08:45:51.218Z,-0.60
2018-02-18T08:46:53.746Z,-0.60
2018-02-18T08:47:56.293Z,-0.50
2018-02-18T08:48:58.861Z,-0.50
2018-02-18T08:50:01.391Z,-0.40
2018-02-18T08:51:04.686Z,-0.50
2018-02-18T08:52:07.978Z,-0.50
2018-02-18T08:53:11.266Z,-0.50
2018-02-18T08:54:13.821Z,-0.50
2018-02-18T08:55:17.113Z,-0.40
2018-02-18T08:56:20.402Z,-0.40
2018-02-18T08:57:22.935Z,-0.40
2018-02-18T08:58:25.464Z,-0.50
2018-02-18T08:59:28.028Z,-0.50
2018-02-18T09:00:30.578Z,-0.50
2018-02-18T09:01:33.113Z,-0.40
2018-02-18T09:02:36.438Z,-0.40
2018-02-18T09:03:39.064Z,-0.40
2018-02-18T09:04:42.362Z,-0.40
2018-02-18T09:05:45.011Z,-0.40
2018-02-18T09:06:47.577Z,-0.40
2018-02-18T09:07:50.133Z,-0.30
2018-02-18T09:08:52.658Z,-0.30
2018-02-18T09:09:55.186Z,-0.30
2018-02-18T09:10:57.831Z,-0.40
2018-02-18T09:12:00.404Z,-0.40
2018-02-18T09:13:02.961Z,-0.40
2018-02-18T09:14:05.490Z,-0.40
2018-02-18T09:15:08.017Z,-0.40
2018-02-18T09:16:11.739Z,-0.30
2018-02-18T09:17:14.314Z,-0.30
2018-02-18T09:18:16.836Z,-0.30
2018-02-18T09:19:19.385Z,-0.30
2018-02-18T09:20:21.923Z,-0.30
2018-02-18T09:21:24.453Z,-0.20
2018-02-18T09:22:27.793Z,-0.10
2018-02-18T09:23:30.325Z,-0.10
2018-02-18T09:24:32.858Z,-0.10
2018-02-18T09:25:36.146Z,0.00
2018-02-18T09:26:39.424Z,0.10
2018-02-18T09:27:42.753Z,0.10
2018-02-18T09:28:45.286Z,0.10
2018-02-18T09:29:48.571Z,0.10
2018-02-18T09:30:51.925Z,0.20
2018-02-18T09:31:54.451Z,0.20
2018-02-18T09:32:56.974Z,0.20
2018-02-18T09:34:00.267Z,0.20
2018-02-18T09:35:03.555Z,0.20
2018-02-18T09:36:06.873Z,0.30
2018-02-18T09:37:09.437Z,0.30
2018-02-18T09:38:12.001Z,0.30
2018-02-18T09:39:14.546Z,0.40
2018-02-18T09:40:17.072Z,0.40
2018-02-18T09:41:19.598Z,0.40
2018-02-18T09:42:22.124Z,0.50
2018-02-18T09:43:25.467Z,0.60
2018-02-18T09:44:28.025Z,0.60
2018-02-18T09:45:30.552Z,0.60
2018-02-18T09:46:33.850Z,0.60
2018-02-18T09:47:36.372Z,0.60
2018-02-18T09:48:39.661Z,0.80
2018-02-18T09:49:42.242Z,0.80
2018-02-18T09:50:45.542Z,1.00
2018-02-18T09:51:48.844Z,1.10
2018-02-18T09:52:51.361Z,1.10
2018-02-18T09:53:53.892Z,1.50
2018-02-18T09:54:56.456Z,2.10
2018-02-18T09:55:59.086Z,3.10
2018-02-18T09:57:02.378Z,5.30
2018-02-18T09:58:05.665Z,6.50
2018-02-18T09:59:08.230Z,6.40
2018-02-18T10:00:10.790Z,7.40
2018-02-18T10:01:14.074Z,9.00
2018-02-18T10:02:17.365Z,9.80
2018-02-18T10:03:19.899Z,9.80
2018-02-18T10:04:22.433Z,10.50
2018-02-18T10:05:25.020Z,11.00
2018-02-18T10:06:27.549Z,11.50
2018-02-18T10:07:30.080Z,11.90
2018-02-18T10:08:33.391Z,12.50
2018-02-18T10:09:35.916Z,12.40
2018-02-18T10:10:38.474Z,12.30
2018-02-18T10:11:40.998Z,12.60
2018-02-18T10:12:43.573Z,12.70
2018-02-18T10:13:46.094Z,12.60
2018-02-18T10:14:49.387Z,12.70
2018-02-18T10:15:52.679Z,12.70
2018-02-18T10:16:55.206Z,12.70
2018-02-18T10:17:57.758Z,12.80
2018-02-18T10:19:00.288Z,13.00
2018-02-18T10:20:02.814Z,13.00
2018-02-18T10:21:05.336Z,13.00
2018-02-18T10:22:07.867Z,12.90
2018-02-18T10:23:11.192Z,12.80
2018-02-18T10:24:13.716Z,12.80
2018-02-18T10:25:17.107Z,12.80
2018-02-18T10:26:19.580Z,12.80
2018-02-18T10:27:22.101Z,13.00
2018-02-18T10:28:24.641Z,13.20
2018-02-18T10:29:27.200Z,13.50
2018-02-18T10:30:29.774Z,13.50
2018-02-18T10:31:32.303Z,13.40
2018-02-18T10:32:34.838Z,13.60
2018-02-18T10:33:37.367Z,13.60
2018-02-18T10:34:39.898Z,13.80
2018-02-18T10:35:43.314Z,13.30
2018-02-18T10:36:45.833Z,13.30
2018-02-18T10:37:48.588Z,13.40
2018-02-18T10:38:51.116Z,13.20
2018-02-18T10:39:53.655Z,13.30
2018-02-18T10:40:56.970Z,13.20
2018-02-18T10:41:59.494Z,13.10
2018-02-18T10:43:02.797Z,13.40
2018-02-18T10:44:05.317Z,13.40
2018-02-18T10:45:07.889Z,13.70
2018-02-18T10:46:10.617Z,14.00
2018-02-18T10:47:13.137Z,14.10
2018-02-18T10:48:15.662Z,13.80
2018-02-18T10:49:18.190Z,13.40
2018-02-18T10:50:21.527Z,13.00
2018-02-18T10:51:24.057Z,12.90
2018-02-18T10:52:26.576Z,12.80
2018-02-18T10:53:29.157Z,12.80
2018-02-18T10:54:31.680Z,13.00
2018-02-18T10:55:34.200Z,12.90
2018-02-18T10:56:37.502Z,12.90
2018-02-18T10:57:40.046Z,12.90
2018-02-18T10:58:43.377Z,13.20
2018-02-18T10:59:46.081Z,13.10
2018-02-18T11:00:48.613Z,12.90
2018-02-18T11:01:51.897Z,12.60
2018-02-18T11:02:54.434Z,12.50
2018-02-18T11:03:56.998Z,12.30
2018-02-18T11:04:59.522Z,12.10
2018-02-18T11:06:02.051Z,11.40
2018-02-18T11:07:04.577Z,11.30
2018-02-18T11:08:07.882Z,11.30
2018-02-18T11:09:10.445Z,11.30
2018-02-18T11:10:13.739Z,11.20
2018-02-18T11:11:16.264Z,11.20
2018-02-18T11:12:18.790Z,11.20
2018-02-18T11:13:21.358Z,10.90
2018-02-18T11:14:23.893Z,10.50
2018-02-18T11:15:27.179Z,9.60
2018-02-18T11:16:29.724Z,9.50
2018-02-18T11:17:33.020Z,9.40
2018-02-18T11:18:36.309Z,9.40
2018-02-18T11:19:39.608Z,9.10
2018-02-18T11:20:42.130Z,9.10
2018-02-18T11:21:44.774Z,9.00
2018-02-18T11:22:47.298Z,8.90
2018-02-18T11:23:49.859Z,9.10
2018-02-18T11:24:52.393Z,9.00
2018-02-18T11:25:54.986Z,8.90
2018-02-18T11:26:58.282Z,9.00
2018-02-18T11:28:00.806Z,8.90
2018-02-18T11:29:03.329Z,9.10
2018-02-18T11:30:05.842Z,9.20
2018-02-18T11:31:08.407Z,9.20
2018-02-18T11:32:10.916Z,9.20
2018-02-18T11:33:13.438Z,9.20
2018-02-18T11:34:15.965Z,9.20
2018-02-18T11:35:18.484Z,9.20
2018-02-18T11:36:21.034Z,9.00
2018-02-18T11:37:23.562Z,8.80
2018-02-18T11:38:26.118Z,8.80
2018-02-18T11:39:28.653Z,8.80
2018-02-18T11:40:31.957Z,8.80
2018-02-18T11:41:34.469Z,8.70
2018-02-18T11:42:36.990Z,8.80
2018-02-18T11:43:40.341Z,8.50
2018-02-18T11:44:42.862Z,8.50
2018-02-18T11:45:45.398Z,8.30
2018-02-18T11:46:47.938Z,8.30
2018-02-18T11:47:50.453Z,8.40
2018-02-18T11:48:53.022Z,8.50
2018-02-18T11:49:55.541Z,8.50
2018-02-18T11:50:58.063Z,8.50
2018-02-18T11:52:00.586Z,8.40
2018-02-18T11:53:03.874Z,8.30
2018-02-18T11:54:07.194Z,8.20
2018-02-18T11:55:09.729Z,8.20
2018-02-18T11:56:13.023Z,8.30
2018-02-18T11:57:15.556Z,8.30
2018-02-18T11:58:18.075Z,8.20
2018-02-18T11:59:20.626Z,8.20
2018-02-18T12:00:23.145Z,8.20
2018-02-18T12:01:25.686Z,8.30
2018-02-18T12:02:28.243Z,8.30
2018-02-18T12:03:30.856Z,8.40
2018-02-18T12:04:33.373Z,8.50
2018-02-18T12:05:36.040Z,8.60
2018-02-18T12:06:38.589Z,8.80
2018-02-18T12:07:41.109Z,8.90
2018-02-18T12:08:43.626Z,9.00
2018-02-18T12:09:46.168Z,9.20
2018-02-18T12:10:49.494Z,9.40
2018-02-18T12:11:52.026Z,9.40
2018-02-18T12:12:54.556Z,9.50
2018-02-18T12:13:57.080Z,9.70
2018-02-18T12:14:59.622Z,9.60
2018-02-18T12:16:02.913Z,9.70
2018-02-18T12:17:05.457Z,9.80
2018-02-18T12:18:08.784Z,10.20
2018-02-18T12:19:11.314Z,10.10
2018-02-18T12:20:14.635Z,10.50
2018-02-18T12:21:17.162Z,10.50
2018-02-18T12:22:20.462Z,10.60
2018-02-18T12:23:23.025Z,10.60
2018-02-18T12:24:26.313Z,10.80
2018-02-18T12:25:28.847Z,10.80
2018-02-18T12:26:31.361Z,10.70
2018-02-18T12:27:33.912Z,10.60
2018-02-18T12:28:36.442Z,10.60
2018-02-18T12:29:38.973Z,10.70
2018-02-18T12:30:41.505Z,10.70
2018-02-18T12:31:44.890Z,10.40
2018-02-18T12:32:48.224Z,10.30
2018-02-18T12:33:50.770Z,10.30
2018-02-18T12:34:53.303Z,10.60
2018-02-18T12:35:56.597Z,11.20
2018-02-18T12:36:59.153Z,11.20
2018-02-18T12:38:02.446Z,11.60
2018-02-18T12:39:04.982Z,11.60
2018-02-18T12:40:07.619Z,11.50
2018-02-18T12:41:10.147Z,11.50
2018-02-18T12:42:12.709Z,11.50
2018-02-18T12:43:15.998Z,11.20
2018-02-18T12:44:18.522Z,11.20
2018-02-18T12:45:21.051Z,11.10
2018-02-18T12:46:23.572Z,11.00
2018-02-18T12:47:26.143Z,11.20
2018-02-18T12:48:29.432Z,11.30
2018-02-18T12:49:32.772Z,11.30
2018-02-18T12:50:35.314Z,11.30
2018-02-18T12:51:37.854Z,11.50
2018-02-18T12:52:41.143Z,11.70
2018-02-18T12:53:44.424Z,11.50
2018-02-18T12:54:46.989Z,11.50
2018-02-18T12:55:50.289Z,11.60
2018-02-18T12:56:52.834Z,11.60
2018-02-18T12:57:56.174Z,11.50
2018-02-18T12:58:58.699Z,11.40
2018-02-18T13:00:01.991Z,11.20
2018-02-18T13:01:04.533Z,11.20
2018-02-18T13:02:07.866Z,11.40
2018-02-18T13:03:10.438Z,11.40
2018-02-18T13:04:12.989Z,11.30
2018-02-18T13:05:15.560Z,11.60
2018-02-18T13:06:18.085Z,11.50
2018-02-18T13:07:21.392Z,11.60
2018-02-18T13:08:23.928Z,11.50
2018-02-18T13:09:27.231Z,11.80
2018-02-18T13:10:30.566Z,11.50
2018-02-18T13:11:33.099Z,11.50
2018-02-18T13:12:35.626Z,11.70
2018-02-18T13:13:38.917Z,11.90
2018-02-18T13:14:42.204Z,11.80
2018-02-18T13:15:45.533Z,11.80
2018-02-18T13:16:48.086Z,11.80
2018-02-18T13:17:50.746Z,11.90
2018-02-18T13:18:53.271Z,11.70
2018-02-18T13:19:55.798Z,11.60
2018-02-18T13:20:58.404Z,11.50
2018-02-18T13:22:01.060Z,11.20
2018-02-18T13:23:03.596Z,10.90
2018-02-18T13:24:06.140Z,10.80
2018-02-18T13:25:08.676Z,10.90
2018-02-18T13:26:11.233Z,10.90
2018-02-18T13:27:13.793Z,11.10
2018-02-18T13:28:16.310Z,11.10
2018-02-18T13:29:18.876Z,11.40
2018-02-18T13:30:21.401Z,11.90
2018-02-18T13:31:23.922Z,12.10
2018-02-18T13:32:26.500Z,12.30
2018-02-18T13:33:29.750Z,12.00